createdAt,value
2024-03-25T00:00:53.241Z,55.87
2024-03-25T00:01:53.264Z,53.19
2024-03-25T00:02:53.297Z,53.63
2024-03-25T00:03:53.314Z,53.57
2024-03-25T00:04:53.360Z,57.23
2024-03-25T00:05:53.356Z,52.69
2024-03-25T00:06:53.398Z,52.98
2024-03-25T00:07:53.435Z,55.94
2024-03-25T00:08:53.435Z,55.52
2024-03-25T00:09:53.450Z,54.13
2024-03-25T00:10:53.486Z,55.16
2024-03-25T00:11:53.491Z,53.87
2024-03-25T00:12:53.513Z,54.40
2024-03-25T00:13:53.578Z,52.37
2024-03-25T00:14:53.562Z,56.53
2024-03-25T00:15:53.592Z,56.15
2024-03-25T00:16:53.627Z,55.90
2024-03-25T00:17:53.635Z,56.56
2024-03-25T00:18:53.654Z,54.86
2024-03-25T00:19:53.680Z,52.35
2024-03-25T00:20:53.700Z,55.62
2024-03-25T00:21:53.735Z,55.22
2024-03-25T00:22:53.776Z,54.43
2024-03-25T00:23:53.794Z,53.05
2024-03-25T00:24:53.823Z,52.61
2024-03-25T00:25:53.843Z,54.80
2024-03-25T00:26:53.868Z,55.50
2024-03-25T00:27:53.900Z,55.49
2024-03-25T00:28:53.946Z,57.65
2024-03-25T00:29:53.956Z,52.69
2024-03-25T00:30:53.978Z,50.77
2024-03-25T00:31:54.040Z,54.90
2024-03-25T00:32:54.016Z,53.15
2024-03-25T00:33:54.040Z,53.25
2024-03-25T00:34:54.069Z,55.74
2024-03-25T00:35:54.087Z,51.66
2024-03-25T00:36:54.106Z,54.69
2024-03-25T00:37:54.127Z,53.88
2024-03-25T00:38:54.151Z,54.58
2024-03-25T00:39:54.163Z,54.05
2024-03-25T00:40:54.194Z,50.00
2024-03-25T00:41:54.201Z,53.57
2024-03-25T00:42:54.232Z,54.81
2024-03-25T00:43:54.246Z,54.56
2024-03-25T00:44:54.258Z,56.71
2024-03-25T00:45:54.280Z,54.42
2024-03-25T00:46:54.334Z,57.35
2024-03-25T00:47:54.326Z,53.21
2024-03-25T00:48:54.348Z,54.14
2024-03-25T00:49:54.387Z,55.62
2024-03-25T00:50:54.415Z,54.90
2024-03-25T00:51:54.473Z,53.91
2024-03-25T00:52:54.530Z,56.88
2024-03-25T00:53:54.578Z,57.09
2024-03-25T00:54:54.595Z,54.84
2024-03-25T00:55:54.671Z,53.91
2024-03-25T00:56:54.648Z,56.91
2024-03-25T00:57:54.686Z,57.74
2024-03-25T00:58:54.758Z,56.93
2024-03-25T00:59:54.773Z,55.59
2024-03-25T01:00:54.794Z,54.92
2024-03-25T01:01:54.826Z,56.10
2024-03-25T01:02:54.832Z,53.59
2024-03-25T01:03:54.868Z,57.36
2024-03-25T01:04:54.930Z,56.29
2024-03-25T01:05:54.904Z,56.58
2024-03-25T01:06:54.921Z,55.41
2024-03-25T01:07:54.969Z,55.90
2024-03-25T01:08:55.033Z,56.83
2024-03-25T01:09:55.044Z,55.37
2024-03-25T01:10:55.118Z,55.41
2024-03-25T01:11:55.081Z,56.33
2024-03-25T01:12:55.106Z,55.84
2024-03-25T01:13:55.155Z,55.94
2024-03-25T01:14:55.194Z,56.02
2024-03-25T01:15:55.221Z,55.84
2024-03-25T01:16:55.286Z,56.82
2024-03-25T01:17:55.274Z,57.57
2024-03-25T01:18:55.306Z,57.05
2024-03-25T01:19:55.333Z,55.96
2024-03-25T01:20:55.364Z,56.92
2024-03-25T01:21:55.387Z,57.08
2024-03-25T01:22:55.417Z,57.26
2024-03-25T01:23:55.446Z,56.44
2024-03-25T01:24:55.478Z,55.80
2024-03-25T01:25:55.568Z,57.89
2024-03-25T01:26:55.551Z,56.57
2024-03-25T01:27:55.587Z,54.80
2024-03-25T01:28:55.638Z,56.24
2024-03-25T01:29:55.642Z,58.88
2024-03-25T01:30:55.968Z,54.43
2024-03-25T01:31:55.708Z,57.38
2024-03-25T01:32:55.730Z,55.56
2024-03-25T01:33:55.766Z,57.04
2024-03-25T01:34:55.807Z,54.93
2024-03-25T01:35:55.909Z,54.07
2024-03-25T01:36:55.852Z,57.53
2024-03-25T01:37:55.876Z,55.89
2024-03-25T01:38:55.896Z,58.60
2024-03-25T01:39:55.918Z,55.17
2024-03-25T01:40:55.954Z,54.11
2024-03-25T01:41:55.977Z,56.43
2024-03-25T01:42:55.999Z,56.00
2024-03-25T01:43:56.055Z,55.84
2024-03-25T01:44:56.064Z,54.63
2024-03-25T01:45:56.095Z,54.17
2024-03-25T01:46:56.144Z,56.48
2024-03-25T01:47:56.147Z,54.37
2024-03-25T01:48:56.171Z,56.21
2024-03-25T01:49:56.218Z,57.00
2024-03-25T01:50:56.231Z,55.89
2024-03-25T01:51:56.259Z,56.15
2024-03-25T01:52:56.297Z,55.29
2024-03-25T01:53:56.319Z,56.35
2024-03-25T01:54:56.339Z,54.88
2024-03-25T01:55:56.389Z,57.72
2024-03-25T01:56:56.399Z,59.28
2024-03-25T01:57:56.421Z,56.69
2024-03-25T01:58:56.451Z,56.19
2024-03-25T01:59:56.483Z,57.61
2024-03-25T02:00:56.513Z,56.54
2024-03-25T02:01:56.546Z,53.65
2024-03-25T02:02:56.556Z,57.59
2024-03-25T02:03:56.603Z,56.28
2024-03-25T02:04:56.636Z,53.92
2024-03-25T02:05:56.638Z,55.38
2024-03-25T02:06:56.654Z,55.58
2024-03-25T02:07:56.698Z,58.19
2024-03-25T02:08:56.698Z,55.70
2024-03-25T02:09:56.724Z,58.90
2024-03-25T02:10:56.911Z,56.58
2024-03-25T02:11:56.775Z,58.88
2024-03-25T02:12:56.804Z,55.48
2024-03-25T02:13:56.845Z,57.40
2024-03-25T02:14:56.868Z,58.66
2024-03-25T02:15:56.905Z,56.92
2024-03-25T02:16:56.918Z,56.10
2024-03-25T02:17:56.960Z,53.89
2024-03-25T02:18:56.975Z,53.73
2024-03-25T02:19:57.052Z,54.23
2024-03-25T02:20:57.026Z,57.97
2024-03-25T02:21:57.050Z,58.52
2024-03-25T02:22:57.091Z,55.18
2024-03-25T02:23:57.119Z,55.89
2024-03-25T02:24:57.145Z,56.90
2024-03-25T02:25:57.175Z,56.48
2024-03-25T02:26:57.195Z,57.53
2024-03-25T02:27:57.230Z,56.11
2024-03-25T02:28:57.257Z,54.46
2024-03-25T02:29:57.279Z,56.51
2024-03-25T02:30:57.311Z,60.35
2024-03-25T02:31:57.338Z,53.37
2024-03-25T02:32:57.368Z,54.61
2024-03-25T02:33:57.404Z,56.91
2024-03-25T02:34:57.450Z,54.03
2024-03-25T02:35:57.471Z,55.42
2024-03-25T02:36:57.495Z,55.82
2024-03-25T02:37:57.536Z,56.59
2024-03-25T02:38:57.553Z,55.21
2024-03-25T02:39:57.573Z,56.00
2024-03-25T02:40:57.598Z,56.63
2024-03-25T02:41:57.621Z,54.48
2024-03-25T02:42:57.656Z,54.98
2024-03-25T02:43:57.680Z,56.03
2024-03-25T02:44:57.721Z,54.98
2024-03-25T02:45:57.769Z,53.93
2024-03-25T02:46:57.774Z,53.04
2024-03-25T02:47:57.803Z,55.37
2024-03-25T02:48:57.828Z,56.24
2024-03-25T02:49:57.865Z,56.20
2024-03-25T02:50:57.879Z,52.17
2024-03-25T02:51:57.923Z,52.49
2024-03-25T02:52:57.948Z,55.16
2024-03-25T02:53:57.971Z,57.59
2024-03-25T02:54:58.003Z,55.79
2024-03-25T02:55:58.030Z,53.40
2024-03-25T02:56:58.043Z,54.38
2024-03-25T02:57:58.091Z,55.78
2024-03-25T02:58:58.139Z,56.93
2024-03-25T02:59:58.158Z,56.74
2024-03-25T03:00:58.190Z,56.80
2024-03-25T03:01:58.213Z,56.88
2024-03-25T03:02:58.232Z,56.67
2024-03-25T03:03:58.269Z,55.34
2024-03-25T03:04:58.314Z,55.74
2024-03-25T03:05:58.329Z,56.58
2024-03-25T03:06:58.373Z,55.84
2024-03-25T03:07:58.401Z,54.86
2024-03-25T03:08:58.425Z,54.85
2024-03-25T03:09:58.456Z,55.35
2024-03-25T03:10:58.513Z,57.31
2024-03-25T03:11:58.532Z,55.76
2024-03-25T03:12:58.557Z,56.69
2024-03-25T03:13:58.602Z,53.03
2024-03-25T03:14:58.623Z,55.95
2024-03-25T03:15:58.653Z,58.22
2024-03-25T03:16:58.705Z,52.92
2024-03-25T03:17:58.704Z,54.94
2024-03-25T03:18:58.734Z,56.57
2024-03-25T03:19:58.776Z,55.00
2024-03-25T03:20:58.793Z,57.08
2024-03-25T03:21:59.512Z,55.90
2024-03-25T03:22:58.897Z,53.84
2024-03-25T03:23:58.898Z,54.70
2024-03-25T03:24:58.927Z,52.80
2024-03-25T03:25:58.956Z,56.04
2024-03-25T03:26:58.979Z,55.17
2024-03-25T03:27:59.004Z,54.30
2024-03-25T03:28:59.064Z,53.66
2024-03-25T03:29:59.075Z,52.60
2024-03-25T03:30:59.095Z,53.67
2024-03-25T03:31:59.149Z,53.70
2024-03-25T03:32:59.169Z,53.29
2024-03-25T03:33:59.199Z,52.71
2024-03-25T03:34:59.244Z,52.40
2024-03-25T03:35:59.254Z,54.28
2024-03-25T03:36:59.305Z,53.88
2024-03-25T03:37:59.335Z,55.37
2024-03-25T03:38:59.371Z,56.32
2024-03-25T03:39:59.373Z,54.65
2024-03-25T03:40:59.402Z,55.51
2024-03-25T03:41:59.430Z,54.57
2024-03-25T03:42:59.462Z,55.13
2024-03-25T03:43:59.501Z,55.60
2024-03-25T03:44:59.528Z,53.07
2024-03-25T03:45:59.551Z,53.30
2024-03-25T03:46:59.600Z,52.74
2024-03-25T03:47:59.603Z,53.40
2024-03-25T03:48:59.636Z,54.99
2024-03-25T03:49:59.684Z,51.56
2024-03-25T03:50:59.688Z,55.27
2024-03-25T03:51:59.720Z,57.49
2024-03-25T03:52:59.760Z,53.65
2024-03-25T03:53:59.793Z,56.46
2024-03-25T03:54:59.817Z,54.80
2024-03-25T03:55:59.893Z,56.62
2024-03-25T03:56:59.862Z,56.56
2024-03-25T03:57:59.892Z,55.04
2024-03-25T03:58:59.924Z,56.55
2024-03-25T03:59:59.960Z,54.44
2024-03-25T04:00:59.987Z,54.73
2024-03-25T04:02:00.030Z,52.81
2024-03-25T04:03:00.050Z,54.42
2024-03-25T04:04:00.092Z,56.71
2024-03-25T04:05:00.147Z,54.51
2024-03-25T04:06:00.172Z,52.76
2024-03-25T04:07:00.191Z,53.32
2024-03-25T04:08:00.255Z,52.18
2024-03-25T04:09:00.243Z,54.93
2024-03-25T04:10:00.404Z,52.98
2024-03-25T04:11:00.339Z,51.18
2024-03-25T04:12:00.335Z,53.52
2024-03-25T04:13:00.366Z,53.16
2024-03-25T04:14:00.429Z,54.58
2024-03-25T04:15:00.437Z,53.48
2024-03-25T04:16:00.462Z,54.12
2024-03-25T04:17:00.504Z,54.55
2024-03-25T04:18:00.527Z,50.89
2024-03-25T04:19:00.570Z,52.59
2024-03-25T04:20:00.646Z,55.90
2024-03-25T04:21:00.647Z,53.81
2024-03-25T04:22:00.675Z,53.28
2024-03-25T04:23:00.698Z,53.09
2024-03-25T04:24:00.714Z,56.55
2024-03-25T04:25:00.755Z,55.96
2024-03-25T04:26:00.820Z,57.20
2024-03-25T04:27:00.859Z,55.61
2024-03-25T04:28:00.840Z,58.05
2024-03-25T04:29:00.873Z,56.42
2024-03-25T04:30:00.903Z,56.00
2024-03-25T04:31:00.937Z,57.87
2024-03-25T04:32:01.005Z,56.29
2024-03-25T04:33:00.982Z,55.14
2024-03-25T04:34:01.020Z,56.06
2024-03-25T04:35:08.259Z,50.00
2024-03-25T04:36:08.260Z,50.00
2024-03-25T04:37:08.235Z,50.00
2024-03-25T04:38:08.240Z,50.00
2024-03-25T04:39:08.243Z,50.00
2024-03-25T04:40:08.221Z,53.82
2024-03-25T04:41:08.216Z,54.43
2024-03-25T04:42:08.217Z,51.80
2024-03-25T04:43:08.211Z,51.31
2024-03-25T04:44:08.206Z,51.77
2024-03-25T04:45:08.204Z,52.19
2024-03-25T04:46:08.866Z,53.33
2024-03-25T04:47:08.198Z,53.35
2024-03-25T04:48:08.182Z,53.87
2024-03-25T04:49:08.183Z,50.00
2024-03-25T04:50:08.175Z,52.12
2024-03-25T04:51:10.091Z,54.09
2024-03-25T04:52:08.166Z,53.61
2024-03-25T04:53:08.158Z,52.96
2024-03-25T04:54:08.156Z,51.96
2024-03-25T04:55:08.147Z,54.84
2024-03-25T04:56:08.142Z,53.67
2024-03-25T04:57:08.139Z,51.57
2024-03-25T04:58:08.133Z,53.07
2024-03-25T04:59:08.128Z,53.00
2024-03-25T05:00:08.121Z,51.30
2024-03-25T05:01:08.116Z,51.17
2024-03-25T05:02:08.107Z,53.26
2024-03-25T05:03:08.099Z,54.01
2024-03-25T05:04:08.088Z,55.12
2024-03-25T05:05:08.090Z,53.38
2024-03-25T05:06:08.121Z,52.64
2024-03-25T05:07:08.147Z,52.65
2024-03-25T05:08:08.178Z,52.98
2024-03-25T05:09:08.205Z,51.80
2024-03-25T05:10:08.226Z,53.38
2024-03-25T05:11:08.254Z,54.14
2024-03-25T05:12:08.280Z,53.79
2024-03-25T05:13:08.320Z,50.79
2024-03-25T05:14:08.345Z,51.25
2024-03-25T05:15:08.367Z,53.02
2024-03-25T05:16:08.392Z,54.68
2024-03-25T05:17:08.431Z,53.45
2024-03-25T05:18:08.454Z,53.45
2024-03-25T05:19:08.584Z,52.74
2024-03-25T05:20:08.640Z,52.64
2024-03-25T05:21:08.531Z,52.08
2024-03-25T05:22:08.556Z,52.90
2024-03-25T05:23:08.586Z,51.38
2024-03-25T05:24:08.619Z,52.96
2024-03-25T05:25:08.645Z,52.73
2024-03-25T05:26:08.665Z,53.05
2024-03-25T05:27:08.694Z,56.99
2024-03-25T05:28:08.740Z,55.24
2024-03-25T05:29:08.756Z,52.66
2024-03-25T05:30:11.596Z,54.60
2024-03-25T05:31:08.796Z,53.25
2024-03-25T05:32:08.756Z,54.28
2024-03-25T05:33:08.742Z,54.85
2024-03-25T05:34:08.837Z,54.85
2024-03-25T05:35:08.722Z,54.28
2024-03-25T05:36:08.724Z,53.84
2024-03-25T05:37:10.233Z,55.58
2024-03-25T05:38:08.695Z,56.22
2024-03-25T05:39:08.711Z,55.10
2024-03-25T05:40:08.685Z,55.01
2024-03-25T05:41:08.681Z,55.68
2024-03-25T05:42:08.663Z,53.93
2024-03-25T05:43:08.671Z,56.08
2024-03-25T05:44:08.668Z,54.63
2024-03-25T05:45:08.640Z,54.33
2024-03-25T05:46:08.641Z,56.34
2024-03-25T05:47:08.632Z,56.66
2024-03-25T05:48:10.244Z,53.88
2024-03-25T05:49:08.617Z,56.57
2024-03-25T05:50:08.627Z,54.22
2024-03-25T05:51:08.650Z,56.02
2024-03-25T05:52:08.599Z,56.83
2024-03-25T05:53:08.584Z,55.50
2024-03-25T05:54:08.612Z,56.73
2024-03-25T05:55:08.566Z,56.52
2024-03-25T05:56:08.568Z,55.09
2024-03-25T05:57:08.559Z,54.71
2024-03-25T05:58:08.556Z,56.58
2024-03-25T05:59:08.552Z,51.58
2024-03-25T06:00:08.547Z,54.56
2024-03-25T06:01:08.551Z,56.59
2024-03-25T06:02:08.592Z,55.56
2024-03-25T06:03:08.599Z,55.46
2024-03-25T06:04:08.640Z,54.93
2024-03-25T06:05:08.684Z,51.51
2024-03-25T06:06:08.698Z,52.63
2024-03-25T06:07:08.746Z,54.56
2024-03-25T06:08:08.772Z,55.08
2024-03-25T06:09:08.792Z,55.39
2024-03-25T06:10:08.829Z,52.88
2024-03-25T06:11:08.853Z,56.00
2024-03-25T06:12:08.889Z,56.35
2024-03-25T06:13:08.904Z,56.01
2024-03-25T06:14:08.957Z,57.12
2024-03-25T06:15:08.970Z,58.38
2024-03-25T06:16:08.994Z,56.90
2024-03-25T06:17:09.041Z,56.93
2024-03-25T06:18:09.058Z,57.56
2024-03-25T06:19:09.086Z,57.39
2024-03-25T06:20:09.160Z,58.53
2024-03-25T06:21:09.155Z,57.01
2024-03-25T06:22:09.175Z,58.53
2024-03-25T06:23:09.230Z,58.22
2024-03-25T06:24:09.252Z,58.54
2024-03-25T06:25:09.270Z,57.95
2024-03-25T06:26:09.302Z,54.48
2024-03-25T06:27:11.949Z,59.06
2024-03-25T06:28:09.322Z,57.76
2024-03-25T06:29:09.341Z,56.14
2024-03-25T06:30:09.320Z,56.37
2024-03-25T06:31:09.319Z,58.13
2024-03-25T06:32:09.289Z,60.87
2024-03-25T06:33:09.286Z,58.62
2024-03-25T06:34:09.287Z,58.38
2024-03-25T06:35:09.292Z,58.62
2024-03-25T06:36:09.271Z,58.78
2024-03-25T06:37:09.262Z,61.78
2024-03-25T06:38:09.276Z,57.88
2024-03-25T06:39:09.268Z,58.74
2024-03-25T06:40:09.254Z,57.22
2024-03-25T06:41:09.246Z,60.41
2024-03-25T06:42:09.238Z,59.30
2024-03-25T06:43:09.228Z,62.08
2024-03-25T06:44:09.306Z,58.91
2024-03-25T06:45:09.221Z,59.88
2024-03-25T06:46:09.224Z,61.16
2024-03-25T06:47:09.231Z,59.27
2024-03-25T06:48:09.203Z,59.40
2024-03-25T06:49:09.201Z,59.82
2024-03-25T06:50:09.194Z,60.84
2024-03-25T06:51:09.274Z,60.15
2024-03-25T06:52:09.181Z,58.54
2024-03-25T06:53:09.198Z,60.17
2024-03-25T06:54:09.180Z,62.49
2024-03-25T06:55:09.158Z,59.55
2024-03-25T06:56:09.200Z,61.07
2024-03-25T06:57:09.165Z,61.12
2024-03-25T06:58:09.148Z,60.62
2024-03-25T06:59:09.148Z,62.10
2024-03-25T07:00:09.134Z,62.25
2024-03-25T07:01:09.114Z,62.04
2024-03-25T07:02:09.143Z,64.15
2024-03-25T07:03:09.100Z,63.33
2024-03-25T07:04:09.127Z,60.19
2024-03-25T07:05:09.126Z,64.00
2024-03-25T07:06:09.081Z,62.03
2024-03-25T07:07:09.067Z,62.72
2024-03-25T07:08:09.077Z,65.46
2024-03-25T07:09:09.065Z,61.68
2024-03-25T07:10:09.053Z,64.44
2024-03-25T07:11:09.058Z,64.01
2024-03-25T07:12:09.037Z,65.85
2024-03-25T07:13:09.032Z,67.22
2024-03-25T07:14:09.070Z,65.32
2024-03-25T07:15:09.051Z,67.77
2024-03-25T07:16:09.022Z,69.62
2024-03-25T07:17:09.034Z,67.29
2024-03-25T07:18:09.014Z,68.02
2024-03-25T07:19:09.047Z,70.88
2024-03-25T07:20:09.067Z,68.22
2024-03-25T07:21:09.019Z,68.67
2024-03-25T07:22:09.008Z,68.14
2024-03-25T07:23:09.035Z,69.49
2024-03-25T07:24:08.996Z,68.20
2024-03-25T07:25:09.004Z,68.92
2024-03-25T07:26:09.033Z,70.20
2024-03-25T07:27:08.995Z,66.24
2024-03-25T07:28:08.998Z,69.42
2024-03-25T07:29:09.023Z,69.63
2024-03-25T07:30:08.998Z,71.70
2024-03-25T07:31:08.993Z,69.84
2024-03-25T07:32:09.078Z,70.71
2024-03-25T07:33:09.080Z,68.74
2024-03-25T07:34:09.137Z,69.79
2024-03-25T07:35:09.217Z,70.39
2024-03-25T07:36:09.250Z,66.41
2024-03-25T07:37:09.276Z,67.61
2024-03-25T07:38:09.347Z,70.99
2024-03-25T07:39:09.446Z,67.31
2024-03-25T07:40:09.419Z,69.98
2024-03-25T07:41:09.501Z,69.77
2024-03-25T07:42:09.531Z,65.39
2024-03-25T07:43:09.576Z,67.60
2024-03-25T07:44:09.639Z,65.67
2024-03-25T07:45:09.684Z,67.37
2024-03-25T07:46:09.748Z,67.70
2024-03-25T07:47:09.817Z,66.60
2024-03-25T07:48:09.835Z,67.24
2024-03-25T07:49:09.871Z,65.77
2024-03-25T07:50:09.934Z,67.91
2024-03-25T07:51:09.973Z,65.37
2024-03-25T07:52:10.021Z,66.90
2024-03-25T07:53:10.092Z,67.12
2024-03-25T07:54:10.128Z,65.86
2024-03-25T07:55:10.247Z,64.79
2024-03-25T07:56:11.268Z,64.86
2024-03-25T07:57:10.166Z,64.70
2024-03-25T07:58:10.159Z,64.76
2024-03-25T07:59:10.212Z,65.33
2024-03-25T08:00:10.164Z,61.94
2024-03-25T08:01:10.149Z,63.97
2024-03-25T08:02:10.155Z,62.02
2024-03-25T08:03:10.133Z,64.27
2024-03-25T08:04:10.122Z,61.75
2024-03-25T08:05:10.118Z,63.96
2024-03-25T08:06:10.156Z,62.35
2024-03-25T08:07:11.002Z,61.76
2024-03-25T08:08:10.183Z,63.72
2024-03-25T08:09:10.198Z,61.79
2024-03-25T08:10:10.264Z,61.32
2024-03-25T08:11:10.291Z,63.29
2024-03-25T08:12:10.339Z,61.78
2024-03-25T08:13:10.997Z,62.56
2024-03-25T08:14:10.452Z,60.57
2024-03-25T08:15:10.485Z,60.30
2024-03-25T08:16:10.533Z,60.12
2024-03-25T08:17:10.590Z,60.49
2024-03-25T08:18:10.633Z,60.60
2024-03-25T08:19:10.684Z,59.67
2024-03-25T08:20:10.738Z,59.69
2024-03-25T08:21:10.753Z,59.57
2024-03-25T08:22:10.805Z,61.10
2024-03-25T08:23:10.879Z,59.95
2024-03-25T08:24:10.893Z,59.20
2024-03-25T08:25:10.939Z,58.14
2024-03-25T08:26:11.018Z,57.36
2024-03-25T08:27:11.040Z,56.50
2024-03-25T08:28:11.105Z,58.32
2024-03-25T08:29:11.154Z,57.31
2024-03-25T08:30:11.182Z,57.00
2024-03-25T08:31:11.202Z,61.04
2024-03-25T08:32:11.280Z,60.67
2024-03-25T08:33:11.408Z,61.07
2024-03-25T08:34:11.381Z,60.10
2024-03-25T08:35:11.434Z,61.04
2024-03-25T08:36:11.414Z,63.79
2024-03-25T08:37:11.471Z,62.21
2024-03-25T08:38:11.545Z,62.40
2024-03-25T08:39:12.812Z,62.03
2024-03-25T08:40:11.605Z,61.09
2024-03-25T08:41:11.676Z,59.04
2024-03-25T08:42:11.694Z,60.07
2024-03-25T08:43:11.755Z,59.95
2024-03-25T08:44:11.781Z,58.96
2024-03-25T08:45:11.807Z,58.46
2024-03-25T08:46:11.847Z,55.46
2024-03-25T08:47:11.926Z,56.43
2024-03-25T08:48:11.928Z,55.56
2024-03-25T08:49:11.977Z,57.24
2024-03-25T08:50:12.077Z,54.65
2024-03-25T08:51:12.058Z,54.63
2024-03-25T08:52:12.098Z,56.91
2024-03-25T08:53:12.262Z,56.32
2024-03-25T08:54:12.192Z,54.96
2024-03-25T08:55:12.998Z,53.39
2024-03-25T08:56:12.287Z,55.32
2024-03-25T08:57:12.331Z,55.90
2024-03-25T08:58:12.368Z,54.16
2024-03-25T08:59:12.475Z,51.12
2024-03-25T09:00:12.531Z,54.56
2024-03-25T09:01:12.492Z,53.58
2024-03-25T09:02:12.586Z,55.29
2024-03-25T09:03:12.685Z,54.62
2024-03-25T09:04:26.042Z,55.37
2024-03-25T09:05:13.700Z,55.42
2024-03-25T09:06:12.619Z,55.75
2024-03-25T09:07:12.609Z,55.40
2024-03-25T09:08:12.641Z,53.31
2024-03-25T09:09:12.657Z,55.15
2024-03-25T09:10:12.657Z,55.73
2024-03-25T09:11:12.589Z,56.79
2024-03-25T09:12:12.575Z,56.65
2024-03-25T09:13:12.580Z,56.68
2024-03-25T09:14:12.615Z,54.83
2024-03-25T09:15:12.590Z,55.95
2024-03-25T09:16:12.559Z,59.90
2024-03-25T09:17:12.549Z,57.08
2024-03-25T09:18:12.566Z,59.68
2024-03-25T09:19:12.612Z,58.01
2024-03-25T09:20:12.683Z,54.62
2024-03-25T09:21:12.698Z,54.82
2024-03-25T09:22:12.739Z,57.75
2024-03-25T09:23:12.970Z,60.47
2024-03-25T09:24:12.813Z,56.79
2024-03-25T09:25:12.862Z,59.27
2024-03-25T09:26:12.958Z,61.06
2024-03-25T09:27:12.947Z,57.66
2024-03-25T09:28:12.988Z,56.63
2024-03-25T09:29:13.049Z,60.95
2024-03-25T09:30:13.180Z,56.88
2024-03-25T09:31:13.102Z,59.31
2024-03-25T09:32:13.169Z,61.62
2024-03-25T09:33:13.184Z,60.36
2024-03-25T09:34:13.245Z,62.14
2024-03-25T09:35:13.423Z,62.40
2024-03-25T09:36:13.314Z,60.78
2024-03-25T09:37:13.362Z,61.64
2024-03-25T09:38:13.458Z,58.62
2024-03-25T09:39:13.466Z,59.92
2024-03-25T09:40:13.482Z,61.25
2024-03-25T09:41:13.548Z,59.73
2024-03-25T09:42:13.637Z,58.61
2024-03-25T09:43:13.588Z,63.78
2024-03-25T09:44:13.675Z,60.97
2024-03-25T09:45:13.663Z,63.76
2024-03-25T09:46:13.690Z,62.80
2024-03-25T09:47:13.732Z,60.94
2024-03-25T09:48:13.764Z,62.47
2024-03-25T09:49:13.815Z,61.25
2024-03-25T09:50:13.926Z,61.55
2024-03-25T09:51:13.886Z,59.57
2024-03-25T09:52:13.907Z,59.78
2024-03-25T09:53:13.965Z,61.50
2024-03-25T09:54:14.007Z,63.61
2024-03-25T09:55:14.022Z,62.06
2024-03-25T09:56:14.064Z,59.11
2024-03-25T09:57:14.120Z,58.06
2024-03-25T09:58:14.135Z,62.01
2024-03-25T09:59:14.238Z,58.85
2024-03-25T10:00:14.276Z,57.59
2024-03-25T10:01:14.265Z,58.23
2024-03-25T10:02:14.352Z,59.70
2024-03-25T10:03:14.353Z,59.74
2024-03-25T10:04:14.368Z,61.39
2024-03-25T10:05:14.400Z,62.48
2024-03-25T10:06:14.438Z,60.86
2024-03-25T10:07:14.463Z,59.40
2024-03-25T10:08:14.543Z,59.58
2024-03-25T10:09:14.533Z,60.33
2024-03-25T10:10:14.576Z,59.29
2024-03-25T10:11:14.626Z,57.66
2024-03-25T10:12:14.638Z,59.79
2024-03-25T10:13:14.701Z,58.61
2024-03-25T10:14:14.750Z,59.09
2024-03-25T10:15:14.768Z,57.69
2024-03-25T10:16:14.828Z,59.72
2024-03-25T10:17:14.811Z,59.00
2024-03-25T10:18:14.831Z,58.90
2024-03-25T10:19:14.891Z,60.88
2024-03-25T10:20:14.923Z,58.92
2024-03-25T10:21:14.957Z,58.41
2024-03-25T10:22:14.960Z,58.48
2024-03-25T10:23:15.028Z,59.11
2024-03-25T10:24:15.030Z,58.26
2024-03-25T10:25:15.059Z,59.42
2024-03-25T10:26:15.121Z,61.22
2024-03-25T10:27:16.089Z,59.72
2024-03-25T10:28:15.154Z,60.83
2024-03-25T10:29:15.190Z,60.67
2024-03-25T10:30:15.224Z,58.11
2024-03-25T10:31:15.258Z,61.13
2024-03-25T10:32:15.366Z,61.66
2024-03-25T10:33:15.331Z,60.46
2024-03-25T10:34:15.367Z,62.41
2024-03-25T10:35:15.439Z,59.63
2024-03-25T10:36:15.428Z,62.19
2024-03-25T10:37:15.531Z,61.21
2024-03-25T10:38:15.640Z,59.70
2024-03-25T10:39:15.527Z,59.23
2024-03-25T10:40:15.575Z,60.33
2024-03-25T10:41:15.610Z,59.79
2024-03-25T10:42:15.619Z,62.82
2024-03-25T10:43:15.653Z,63.57
2024-03-25T10:44:15.691Z,62.47
2024-03-25T10:45:15.765Z,62.08
2024-03-25T10:46:15.750Z,65.16
2024-03-25T10:47:15.810Z,64.05
2024-03-25T10:48:15.840Z,62.62
2024-03-25T10:49:15.837Z,62.87
2024-03-25T10:50:15.935Z,62.02
2024-03-25T10:51:15.897Z,64.47
2024-03-25T10:52:16.001Z,61.20
2024-03-25T10:53:15.981Z,66.97
2024-03-25T10:54:15.975Z,63.61
2024-03-25T10:55:16.035Z,63.28
2024-03-25T10:56:16.040Z,63.46
2024-03-25T10:57:16.053Z,64.90
2024-03-25T10:58:16.069Z,63.87
2024-03-25T10:59:16.112Z,65.13
2024-03-25T11:00:16.120Z,65.50
2024-03-25T11:01:16.151Z,63.99
2024-03-25T11:02:16.209Z,66.62
2024-03-25T11:03:16.183Z,66.74
2024-03-25T11:04:16.204Z,63.69
2024-03-25T11:05:16.376Z,65.84
2024-03-25T11:06:16.354Z,63.86
2024-03-25T11:07:16.284Z,67.79
2024-03-25T11:08:16.321Z,64.91
2024-03-25T11:09:16.366Z,66.92
2024-03-25T11:10:16.350Z,65.77
2024-03-25T11:11:16.413Z,65.83
2024-03-25T11:12:16.836Z,64.81
2024-03-25T11:13:16.442Z,63.96
2024-03-25T11:14:16.493Z,65.46
2024-03-25T11:15:16.471Z,69.31
2024-03-25T11:16:16.495Z,67.29
2024-03-25T11:17:16.583Z,67.16
2024-03-25T11:18:16.542Z,69.06
2024-03-25T11:19:16.594Z,68.02
2024-03-25T11:20:16.625Z,68.44
2024-03-25T11:21:16.623Z,67.60
2024-03-25T11:22:16.655Z,71.27
2024-03-25T11:23:16.700Z,69.41
2024-03-25T11:24:16.694Z,68.96
2024-03-25T11:25:16.722Z,70.35
2024-03-25T11:26:16.747Z,71.20
2024-03-25T11:27:16.751Z,71.64
2024-03-25T11:28:16.768Z,71.75
2024-03-25T11:29:16.816Z,70.21
2024-03-25T11:30:16.821Z,72.77
2024-03-25T11:31:16.843Z,72.62
2024-03-25T11:32:16.872Z,68.75
2024-03-25T11:33:16.876Z,69.74
2024-03-25T11:34:16.898Z,69.57
2024-03-25T11:35:16.948Z,69.03
2024-03-25T11:36:16.939Z,70.39
2024-03-25T11:37:16.954Z,71.11
2024-03-25T11:38:16.991Z,73.82
2024-03-25T11:39:16.983Z,71.41
2024-03-25T11:40:17.002Z,70.07
2024-03-25T11:41:17.026Z,72.03
2024-03-25T11:42:17.026Z,74.06
2024-03-25T11:43:17.030Z,72.42
2024-03-25T11:44:17.088Z,75.22
2024-03-25T11:45:17.073Z,72.55
2024-03-25T11:46:17.090Z,72.90
2024-03-25T11:47:17.137Z,71.66
2024-03-25T11:48:17.121Z,74.98
2024-03-25T11:49:17.133Z,76.08
2024-03-25T11:50:17.170Z,74.17
2024-03-25T11:51:17.162Z,75.23
2024-03-25T11:52:18.462Z,75.05
2024-03-25T11:53:17.226Z,74.31
2024-03-25T11:54:17.215Z,72.14
2024-03-25T11:55:17.230Z,75.77
2024-03-25T11:56:17.272Z,73.41
2024-03-25T11:57:17.259Z,75.82
2024-03-25T11:58:17.280Z,76.70
2024-03-25T11:59:17.335Z,76.11
2024-03-25T12:00:17.312Z,77.90
2024-03-25T12:01:17.324Z,74.17
2024-03-25T12:02:17.375Z,77.44
2024-03-25T12:03:17.342Z,76.88
2024-03-25T12:04:17.353Z,75.66
2024-03-25T12:05:17.407Z,76.68
2024-03-25T12:06:17.382Z,78.70
2024-03-25T12:07:17.402Z,74.04
2024-03-25T12:08:17.416Z,79.49
2024-03-25T12:09:17.440Z,79.69
2024-03-25T12:10:17.452Z,77.28
2024-03-25T12:11:17.486Z,81.21
2024-03-25T12:12:17.485Z,77.46
2024-03-25T12:13:17.494Z,80.54
2024-03-25T12:14:17.520Z,80.92
2024-03-25T12:15:17.540Z,78.81
2024-03-25T12:16:17.539Z,78.18
2024-03-25T12:17:17.579Z,76.92
2024-03-25T12:18:17.567Z,77.29
2024-03-25T12:19:17.635Z,80.71
2024-03-25T12:20:17.629Z,80.41
2024-03-25T12:21:17.619Z,79.45
2024-03-25T12:22:17.636Z,77.70
2024-03-25T12:23:19.627Z,77.87
2024-03-25T12:24:17.657Z,78.32
2024-03-25T12:25:17.673Z,80.48
2024-03-25T12:26:17.711Z,79.39
2024-03-25T12:27:17.690Z,78.73
2024-03-25T12:28:17.713Z,77.34
2024-03-25T12:29:17.735Z,79.96
2024-03-25T12:30:17.731Z,81.12
2024-03-25T12:31:17.751Z,78.02
2024-03-25T12:32:17.772Z,80.24
2024-03-25T12:33:17.881Z,80.30
2024-03-25T12:34:18.308Z,76.89
2024-03-25T12:35:17.789Z,79.76
2024-03-25T12:36:17.809Z,79.88
2024-03-25T12:37:17.809Z,78.92
2024-03-25T12:38:17.837Z,81.16
2024-03-25T12:39:17.830Z,81.38
2024-03-25T12:40:17.838Z,77.57
2024-03-25T12:41:17.859Z,80.38
2024-03-25T12:42:17.867Z,77.62
2024-03-25T12:43:22.013Z,79.11
2024-03-25T12:44:17.855Z,79.13
2024-03-25T12:45:17.856Z,79.47
2024-03-25T12:46:17.819Z,79.52
2024-03-25T12:47:17.816Z,80.44
2024-03-25T12:48:17.783Z,79.88
2024-03-25T12:49:17.769Z,81.24
2024-03-25T12:50:17.781Z,79.88
2024-03-25T12:51:17.748Z,80.53
2024-03-25T12:52:17.734Z,82.96
2024-03-25T12:53:17.723Z,82.01